createdAt,value
2023-07-03T00:02:24.880Z,8.32
2023-07-03T00:04:52.400Z,7.88
2023-07-03T00:07:20.657Z,7.80
2023-07-03T00:09:48.473Z,8.00
2023-07-03T00:12:15.748Z,8.82
2023-07-03T00:14:43.053Z,8.57
2023-07-03T00:17:11.930Z,8.25
2023-07-03T00:19:39.404Z,8.55
2023-07-03T00:22:07.071Z,8.47
2023-07-03T00:24:34.472Z,8.57
2023-07-03T00:27:01.945Z,8.48
2023-07-03T00:29:30.906Z,8.32
2023-07-03T00:31:58.494Z,9.13
2023-07-03T00:34:27.953Z,8.80
2023-07-03T00:36:55.747Z,8.82
2023-07-03T00:39:23.122Z,9.48
2023-07-03T00:41:50.972Z,9.50
2023-07-03T00:44:20.000Z,8.07
2023-07-03T00:46:50.324Z,7.90
2023-07-03T00:49:18.094Z,9.90
2023-07-03T00:51:51.268Z,8.50
2023-07-03T00:54:18.636Z,8.65
2023-07-03T00:56:45.932Z,9.88
2023-07-03T00:59:14.257Z,8.53
2023-07-03T01:01:46.884Z,8.23
2023-07-03T01:04:18.818Z,8.75
2023-07-03T01:06:51.437Z,10.80
2023-07-03T01:09:22.184Z,8.77
2023-07-03T01:11:50.061Z,8.73
2023-07-03T01:14:20.567Z,8.50
2023-07-03T01:16:49.674Z,8.65
2023-07-03T01:19:22.856Z,8.10
2023-07-03T01:21:57.337Z,8.13
2023-07-03T01:24:41.441Z,7.87
2023-07-03T01:27:12.103Z,9.73
2023-07-03T01:29:41.311Z,10.27
2023-07-03T01:32:11.666Z,7.32
2023-07-03T01:34:41.687Z,7.80
2023-07-03T01:37:09.387Z,8.83
2023-07-03T01:39:38.688Z,8.23
2023-07-03T01:42:07.937Z,8.45
2023-07-03T01:44:35.163Z,8.48
2023-07-03T01:47:08.092Z,9.25
2023-07-03T01:49:35.556Z,8.77
2023-07-03T01:52:09.976Z,8.25
2023-07-03T01:54:45.971Z,10.02
2023-07-03T01:57:19.053Z,9.75
2023-07-03T01:59:48.422Z,9.70
2023-07-03T02:02:22.427Z,8.47
2023-07-03T02:04:55.053Z,9.85
2023-07-03T02:07:22.994Z,10.70
2023-07-03T02:09:51.956Z,8.40
2023-07-03T02:12:19.424Z,10.48
2023-07-03T02:14:46.711Z,10.10
2023-07-03T02:17:14.170Z,8.90
2023-07-03T02:19:41.530Z,9.05
2023-07-03T02:22:08.956Z,10.10
2023-07-03T02:24:36.184Z,9.25
2023-07-03T02:27:05.828Z,9.70
2023-07-03T02:29:33.109Z,10.13
2023-07-03T02:32:00.414Z,9.52
2023-07-03T02:34:29.573Z,10.05
2023-07-03T02:37:00.191Z,9.95
2023-07-03T02:39:27.516Z,10.43
2023-07-03T02:41:54.854Z,10.27
2023-07-03T02:44:23.453Z,9.63
2023-07-03T02:46:50.884Z,9.65
2023-07-03T02:49:18.347Z,9.77
2023-07-03T02:51:45.655Z,10.13
2023-07-03T02:54:12.977Z,8.98
2023-07-03T02:56:40.332Z,8.60
2023-07-03T02:59:07.620Z,10.93
2023-07-03T03:01:37.560Z,9.68
2023-07-03T03:04:04.913Z,8.20
2023-07-03T03:06:32.742Z,9.35
2023-07-03T03:09:00.251Z,8.93
2023-07-03T03:11:27.511Z,8.65
2023-07-03T03:13:54.896Z,10.77
2023-07-03T03:16:22.618Z,10.47
2023-07-03T03:18:51.782Z,9.80
2023-07-03T03:21:19.048Z,9.80
2023-07-03T03:23:46.733Z,10.57
2023-07-03T03:26:14.483Z,10.10
2023-07-03T03:28:41.795Z,9.80
2023-07-03T03:31:09.568Z,9.18
2023-07-03T03:33:36.858Z,9.52
2023-07-03T03:36:05.886Z,10.27
2023-07-03T03:38:33.129Z,10.13
2023-07-03T03:41:02.133Z,10.37
2023-07-03T03:43:29.402Z,10.63
2023-07-03T03:45:57.458Z,9.18
2023-07-03T03:48:26.336Z,9.85
2023-07-03T03:50:53.966Z,10.77
2023-07-03T03:53:23.235Z,11.53
2023-07-03T03:55:51.668Z,10.02
2023-07-03T03:58:20.160Z,10.32
2023-07-03T04:00:48.002Z,10.95
2023-07-03T04:03:15.289Z,11.73
2023-07-03T04:05:42.845Z,10.00
2023-07-03T04:08:10.448Z,8.75
2023-07-03T04:10:40.127Z,10.80
2023-07-03T04:13:07.370Z,10.60
2023-07-03T04:15:36.672Z,10.43
2023-07-03T04:18:04.209Z,10.30
2023-07-03T04:20:31.521Z,10.82
2023-07-03T04:22:58.828Z,11.60
2023-07-03T04:25:26.155Z,9.80
2023-07-03T04:27:54.820Z,12.25
2023-07-03T04:30:22.095Z,10.20
2023-07-03T04:32:55.054Z,10.70
2023-07-03T04:35:23.079Z,13.52
2023-07-03T04:37:53.029Z,11.13
2023-07-03T04:40:20.434Z,10.80
2023-07-03T04:42:47.709Z,11.10
2023-07-03T04:45:17.397Z,11.10
2023-07-03T04:47:44.853Z,11.43
2023-07-03T04:50:16.800Z,11.98
2023-07-03T04:52:45.249Z,10.55
2023-07-03T04:55:13.756Z,12.17
2023-07-03T04:57:43.266Z,13.10
2023-07-03T05:00:16.321Z,11.60
2023-07-03T05:02:46.429Z,12.65
2023-07-03T05:05:14.935Z,9.20
2023-07-03T05:07:43.333Z,10.23
2023-07-03T05:10:12.726Z,11.32
2023-07-03T05:12:40.447Z,11.45
2023-07-03T05:15:09.762Z,12.52
2023-07-03T05:17:39.974Z,10.77
2023-07-03T05:20:13.110Z,12.43
2023-07-03T05:22:43.665Z,13.90
2023-07-03T05:25:12.794Z,11.80
2023-07-03T05:27:40.475Z,12.18
2023-07-03T05:30:09.249Z,13.30
2023-07-03T05:32:36.862Z,15.20
2023-07-03T05:35:05.453Z,14.40
2023-07-03T05:37:35.225Z,12.98
2023-07-03T05:40:03.078Z,13.07
2023-07-03T05:42:30.322Z,15.50
2023-07-03T05:44:57.780Z,13.80
2023-07-03T05:47:25.212Z,14.40
2023-07-03T05:49:53.783Z,13.23
2023-07-03T05:52:21.066Z,13.80
2023-07-03T05:54:49.877Z,13.40
2023-07-03T05:57:17.100Z,14.13
2023-07-03T05:59:44.355Z,15.60
2023-07-03T06:02:14.570Z,13.18
2023-07-03T06:04:42.657Z,11.90
2023-07-03T06:07:10.541Z,13.75
2023-07-03T06:09:38.839Z,12.03
2023-07-03T06:12:08.840Z,16.77
2023-07-03T06:14:36.340Z,11.32
2023-07-03T06:17:03.847Z,12.80
2023-07-03T06:19:31.597Z,12.35
2023-07-03T06:21:58.933Z,13.37
2023-07-03T06:24:26.487Z,13.48
2023-07-03T06:26:54.061Z,13.07
2023-07-03T06:29:22.757Z,14.88
2023-07-03T06:31:50.485Z,13.15
2023-07-03T06:34:17.744Z,13.23
2023-07-03T06:36:45.341Z,13.80
2023-07-03T06:39:16.162Z,15.50
2023-07-03T06:41:43.463Z,13.93
2023-07-03T06:44:15.884Z,13.82
2023-07-03T06:46:45.341Z,16.67
2023-07-03T06:49:13.485Z,14.30
2023-07-03T06:51:41.725Z,14.30
2023-07-03T06:54:09.129Z,12.75
2023-07-03T06:56:36.745Z,16.83
2023-07-03T06:59:04.089Z,15.80
2023-07-03T07:01:31.412Z,16.23
2023-07-03T07:04:00.256Z,14.40
2023-07-03T07:06:30.273Z,16.35
2023-07-03T07:08:58.424Z,16.60
2023-07-03T07:11:27.397Z,19.67
2023-07-03T07:13:57.362Z,16.33
2023-07-03T07:16:27.245Z,16.38
2023-07-03T07:18:56.048Z,14.65
2023-07-03T07:21:25.154Z,17.10
2023-07-03T07:23:54.768Z,17.33
2023-07-03T07:26:23.173Z,13.25
2023-07-03T07:28:50.731Z,12.02
2023-07-03T07:31:22.186Z,13.80
2023-07-03T07:33:49.821Z,12.80
2023-07-03T07:36:18.966Z,15.50
2023-07-03T07:38:49.271Z,14.52
2023-07-03T07:41:16.512Z,13.55
2023-07-03T07:43:43.774Z,16.63
2023-07-03T07:46:11.206Z,15.98
2023-07-03T07:48:38.527Z,15.37
2023-07-03T07:51:08.859Z,15.02
2023-07-03T07:53:36.173Z,14.70
2023-07-03T07:56:05.422Z,13.23
2023-07-03T07:58:32.721Z,15.32
2023-07-03T08:01:00.237Z,15.13
2023-07-03T08:03:28.336Z,14.45
2023-07-03T08:05:58.232Z,16.30
2023-07-03T08:08:27.477Z,13.25
2023-07-03T08:10:59.674Z,17.02
2023-07-03T08:13:29.855Z,15.10
2023-07-03T08:15:57.539Z,12.18
2023-07-03T08:18:25.452Z,13.70
2023-07-03T08:20:53.841Z,12.93
2023-07-03T08:23:21.569Z,13.25
2023-07-03T08:25:51.201Z,12.13
2023-07-03T08:28:19.575Z,13.18
2023-07-03T08:30:48.263Z,14.77
2023-07-03T08:33:15.896Z,12.77
2023-07-03T08:38:14.142Z,15.53
2023-07-03T08:40:43.290Z,15.40
2023-07-03T08:43:15.287Z,13.80
2023-07-03T08:45:45.222Z,14.77
2023-07-03T08:48:17.116Z,13.52
2023-07-03T08:50:47.614Z,12.73
2023-07-03T08:53:18.723Z,14.45
2023-07-03T08:55:50.896Z,15.05
2023-07-03T08:58:18.216Z,13.43
2023-07-03T09:00:54.185Z,12.35
2023-07-03T09:03:32.403Z,16.53
2023-07-03T09:06:09.072Z,14.25
2023-07-03T09:08:47.679Z,16.77
2023-07-03T09:11:17.279Z,13.77
2023-07-03T09:13:47.988Z,18.05
2023-07-03T09:16:21.187Z,13.07
2023-07-03T09:18:54.863Z,13.40
2023-07-03T09:21:23.768Z,13.70
2023-07-03T09:23:58.847Z,14.55
2023-07-03T09:26:34.807Z,13.68
2023-07-03T09:29:04.346Z,14.83
2023-07-03T09:31:31.732Z,12.60
2023-07-03T09:34:00.731Z,13.80
2023-07-03T09:36:35.947Z,14.50
2023-07-03T09:39:09.210Z,13.07
2023-07-03T09:41:37.245Z,12.23
2023-07-03T09:44:08.161Z,12.68
2023-07-03T09:46:35.762Z,12.98
2023-07-03T09:49:06.184Z,18.25
2023-07-03T09:51:37.422Z,13.27
2023-07-03T09:54:07.570Z,13.43
2023-07-03T09:56:36.975Z,16.77
2023-07-03T09:59:06.172Z,11.63
2023-07-03T10:06:40.736Z,13.07
2023-07-03T10:11:53.633Z,14.93
2023-07-03T10:14:28.853Z,16.27
2023-07-03T10:16:56.534Z,15.00
2023-07-03T10:19:25.788Z,13.07
2023-07-03T10:21:54.228Z,17.35
2023-07-03T10:24:22.306Z,12.27
2023-07-03T10:26:54.671Z,11.85
2023-07-03T10:29:29.981Z,14.75
2023-07-03T10:32:00.988Z,17.00
2023-07-03T10:34:38.571Z,12.82
2023-07-03T10:37:09.170Z,14.60
2023-07-03T10:39:45.120Z,14.68
2023-07-03T10:42:18.886Z,13.40
2023-07-03T10:44:48.045Z,13.23
2023-07-03T10:47:24.326Z,13.05
2023-07-03T10:49:53.207Z,14.20
2023-07-03T10:52:32.540Z,12.68
2023-07-03T10:55:09.061Z,14.68
2023-07-03T10:57:44.831Z,14.67
2023-07-03T11:00:18.906Z,14.55
2023-07-03T11:02:55.459Z,13.05
2023-07-03T11:05:30.765Z,12.65
2023-07-03T11:08:08.138Z,16.13
2023-07-03T11:10:42.850Z,13.83
2023-07-03T11:13:16.611Z,13.82
2023-07-03T11:15:53.546Z,12.82
2023-07-03T11:23:53.220Z,13.87
2023-07-03T11:29:01.176Z,14.05
2023-07-03T11:31:28.862Z,13.18
2023-07-03T11:44:43.112Z,16.58
2023-07-03T11:47:14.580Z,15.57
2023-07-03T11:49:45.564Z,15.73
2023-07-03T11:52:26.714Z,14.13
2023-07-03T11:55:00.789Z,15.18
2023-07-03T11:57:31.101Z,15.18
2023-07-03T12:00:19.825Z,13.93
2023-07-03T12:02:54.533Z,12.20
2023-07-03T12:05:50.805Z,12.68
2023-07-03T12:08:50.120Z,14.40
2023-07-03T12:11:17.962Z,12.07
2023-07-03T12:13:52.286Z,12.68
2023-07-03T12:16:23.058Z,11.80
2023-07-03T12:19:02.008Z,12.80
2023-07-03T12:21:44.956Z,13.60
2023-07-03T12:24:26.561Z,11.55
2023-07-03T12:26:57.427Z,10.32
2023-07-03T12:29:26.617Z,12.13
2023-07-03T12:31:58.731Z,12.02
2023-07-03T12:34:29.647Z,12.55
2023-07-03T12:37:02.518Z,13.50
2023-07-03T12:39:31.943Z,12.00
2023-07-03T12:42:09.419Z,12.50
2023-07-03T12:44:37.525Z,16.77
2023-07-03T12:47:10.180Z,12.68
2023-07-03T12:50:01.791Z,14.48
2023-07-03T12:52:31.493Z,13.30
2023-07-03T12:57:35.625Z,11.48
2023-07-03T13:00:07.933Z,15.00
2023-07-03T13:02:36.541Z,11.30
2023-07-03T13:05:07.433Z,13.10
2023-07-03T13:07:35.894Z,11.80
2023-07-03T13:10:12.302Z,11.68
2023-07-03T13:12:40.042Z,12.65
2023-07-03T13:15:10.608Z,11.50
2023-07-03T13:17:40.287Z,12.98
2023-07-03T13:20:19.455Z,12.73
2023-07-03T13:22:48.719Z,13.00
2023-07-03T13:25:27.810Z,12.25
2023-07-03T13:27:56.571Z,12.32
2023-07-03T13:30:27.422Z,12.23
2023-07-03T13:35:51.590Z,12.93
2023-07-03T13:38:28.854Z,11.98
2023-07-03T13:40:59.797Z,12.73
2023-07-03T13:43:29.523Z,11.70
2023-07-03T13:45:57.922Z,14.90
2023-07-03T13:48:26.469Z,12.63
2023-07-03T13:50:55.291Z,15.40
2023-07-03T13:53:24.339Z,11.13
2023-07-03T13:55:52.143Z,14.30
2023-07-03T13:58:21.120Z,12.20
2023-07-03T14:00:48.602Z,12.45
2023-07-03T14:03:17.651Z,13.27
2023-07-03T14:05:45.234Z,12.05
2023-07-03T14:08:12.627Z,15.05
2023-07-03T14:10:39.919Z,12.73
2023-07-03T14:13:07.469Z,12.90
2023-07-03T14:15:37.146Z,12.10
2023-07-03T14:18:04.782Z,11.77
2023-07-03T14:20:32.795Z,11.40
2023-07-03T14:23:00.148Z,12.67
2023-07-03T14:25:27.523Z,11.35
2023-07-03T14:27:54.891Z,13.20
2023-07-03T14:30:22.259Z,12.55
2023-07-03T14:32:56.082Z,12.77
2023-07-03T14:35:24.614Z,13.50
2023-07-03T14:37:52.135Z,12.98
2023-07-03T14:40:19.472Z,12.95
2023-07-03T14:42:47.317Z,12.98
2023-07-03T14:45:14.812Z,14.68
2023-07-03T14:47:42.372Z,15.50
2023-07-03T14:50:12.983Z,13.00
2023-07-03T14:52:42.040Z,12.73
2023-07-03T14:55:09.982Z,14.20
2023-07-03T14:57:37.363Z,14.00
2023-07-03T15:00:05.684Z,14.47
2023-07-03T15:02:33.101Z,13.55
2023-07-03T15:05:00.461Z,13.75
2023-07-03T15:07:29.217Z,14.10
2023-07-03T15:09:56.572Z,14.52
2023-07-03T15:12:24.857Z,12.33
2023-07-03T15:14:52.162Z,12.80
2023-07-03T15:17:19.584Z,14.23
2023-07-03T15:19:46.991Z,13.73
2023-07-03T15:22:14.701Z,15.95
2023-07-03T15:24:44.133Z,16.73
2023-07-03T15:27:11.553Z,13.13
2023-07-03T15:29:38.849Z,13.05
2023-07-03T15:32:07.034Z,13.98
2023-07-03T15:34:34.650Z,15.90
2023-07-03T15:37:01.916Z,14.57
2023-07-03T15:39:29.204Z,15.00
2023-07-03T15:41:57.998Z,14.40
2023-07-03T15:44:25.353Z,13.18
2023-07-03T15:46:53.318Z,12.82
2023-07-03T15:49:20.882Z,13.30
2023-07-03T15:51:49.477Z,13.52
2023-07-03T15:54:16.813Z,13.13
2023-07-03T15:56:44.221Z,12.63
2023-07-03T15:59:13.445Z,14.45
2023-07-03T16:01:40.751Z,13.47
2023-07-03T16:04:09.898Z,13.35
2023-07-03T16:06:37.858Z,13.25
2023-07-03T16:09:05.344Z,11.98
2023-07-03T16:11:36.393Z,13.57
2023-07-03T16:14:03.844Z,13.83
2023-07-03T16:16:32.632Z,13.77
2023-07-03T16:19:01.473Z,14.23
2023-07-03T16:21:31.702Z,13.00
2023-07-03T16:23:59.388Z,14.32
2023-07-03T16:26:27.940Z,14.23
2023-07-03T16:28:55.804Z,13.43
2023-07-03T16:31:24.537Z,12.90
2023-07-03T16:33:55.605Z,13.75
2023-07-03T16:36:24.216Z,12.80
2023-07-03T16:38:53.621Z,12.57
2023-07-03T16:41:21.978Z,15.38
2023-07-03T16:43:50.628Z,12.90
2023-07-03T16:46:20.180Z,13.52
2023-07-03T16:48:48.455Z,15.13
2023-07-03T16:51:18.542Z,13.60
2023-07-03T16:53:46.240Z,15.75
2023-07-03T16:56:15.011Z,14.90
2023-07-03T16:58:44.407Z,13.10
2023-07-03T17:01:13.796Z,13.48
2023-07-03T17:03:41.522Z,15.50
2023-07-03T17:06:13.466Z,14.70
2023-07-03T17:08:42.348Z,14.32
2023-07-03T17:11:28.434Z,14.43
2023-07-03T17:13:56.438Z,14.18
2023-07-03T17:16:23.961Z,12.97
2023-07-03T17:18:51.309Z,13.75
2023-07-03T17:21:18.868Z,14.27
2023-07-03T17:23:49.744Z,12.82
2023-07-03T17:26:17.304Z,13.65
2023-07-03T17:28:44.602Z,13.17
2023-07-03T17:31:11.915Z,16.08
2023-07-03T17:33:39.203Z,13.57
2023-07-03T17:36:06.626Z,16.25
2023-07-03T17:38:34.897Z,12.52
2023-07-03T17:41:06.837Z,13.97
2023-07-03T17:43:34.377Z,14.23
2023-07-03T17:46:02.153Z,20.88
2023-07-03T17:48:30.039Z,13.52
2023-07-03T17:50:57.371Z,13.13
2023-07-03T17:53:24.829Z,13.03
2023-07-03T17:55:53.073Z,13.75
2023-07-03T17:58:22.913Z,14.88
2023-07-03T18:00:52.677Z,14.05
2023-07-03T18:03:20.938Z,15.02
2023-07-03T18:05:48.466Z,13.70
2023-07-03T18:08:15.752Z,13.38
2023-07-03T18:10:43.054Z,14.20
2023-07-03T18:13:12.963Z,13.57
2023-07-03T18:15:54.635Z,13.93
2023-07-03T18:18:22.371Z,14.80
2023-07-03T18:20:51.526Z,14.73
2023-07-03T18:23:18.805Z,13.20
2023-07-03T18:25:47.074Z,15.57
2023-07-03T18:28:14.438Z,14.30
2023-07-03T18:30:43.138Z,13.20
2023-07-03T18:33:10.501Z,13.73
2023-07-03T18:35:38.138Z,13.85
2023-07-03T18:38:05.775Z,13.50
2023-07-03T18:40:33.203Z,13.30
2023-07-03T18:43:00.551Z,13.30
2023-07-03T18:45:27.809Z,14.60
2023-07-03T18:47:56.728Z,14.07
2023-07-03T18:50:24.076Z,13.82
2023-07-03T18:52:51.457Z,13.23
2023-07-03T18:55:19.456Z,14.53
2023-07-03T18:57:47.483Z,14.38
2023-07-03T19:00:15.962Z,14.05
2023-07-03T19:02:46.257Z,15.40
2023-07-03T19:05:15.656Z,15.30
2023-07-03T19:07:45.807Z,16.93
2023-07-03T19:10:18.176Z,15.85
2023-07-03T19:12:46.740Z,13.98
2023-07-03T19:15:14.039Z,14.88
2023-07-03T19:17:41.542Z,14.10
2023-07-03T19:20:11.530Z,14.23
2023-07-03T19:22:40.432Z,14.30
2023-07-03T19:25:08.925Z,14.38
2023-07-03T19:27:36.194Z,16.15
2023-07-03T19:30:03.890Z,13.25
2023-07-03T19:32:31.215Z,14.33
2023-07-03T19:34:58.477Z,15.45
2023-07-03T19:37:25.769Z,15.25
2023-07-03T19:39:54.443Z,13.15
2023-07-03T19:42:21.929Z,13.93
2023-07-03T19:44:49.428Z,16.70
2023-07-03T19:47:16.958Z,15.52
2023-07-03T19:49:44.901Z,14.75
2023-07-03T19:52:13.343Z,13.70
2023-07-03T19:54:40.720Z,13.93
2023-07-03T19:57:10.420Z,14.00
2023-07-03T19:59:38.071Z,13.07
2023-07-03T20:02:06.827Z,14.30
2023-07-03T20:04:34.436Z,13.57
2023-07-03T20:07:01.862Z,15.65
2023-07-03T20:09:30.002Z,13.87
2023-07-03T20:11:57.371Z,14.50
2023-07-03T20:14:26.144Z,17.77
2023-07-03T20:16:53.646Z,13.93
2023-07-03T20:19:20.994Z,13.90
2023-07-03T20:21:48.909Z,14.70
2023-07-03T20:24:16.239Z,14.27
2023-07-03T20:26:43.529Z,13.25
2023-07-03T20:29:10.998Z,16.15
2023-07-03T20:31:39.712Z,14.82
2023-07-03T20:34:07.081Z,15.67
2023-07-03T20:36:35.660Z,15.80
2023-07-03T20:39:05.117Z,14.13
2023-07-03T20:41:35.502Z,16.08
2023-07-03T20:44:06.028Z,15.95
2023-07-03T20:46:34.920Z,13.67
2023-07-03T20:49:04.670Z,15.35
2023-07-03T20:51:34.995Z,13.55
2023-07-03T20:54:05.923Z,14.40
2023-07-03T20:56:37.600Z,15.75
2023-07-03T20:59:04.877Z,13.50
2023-07-03T21:01:34.016Z,16.50
2023-07-03T21:04:04.880Z,14.55
2023-07-03T21:06:34.437Z,16.65
2023-07-03T21:09:02.516Z,13.80
2023-07-03T21:11:31.263Z,14.10
2023-07-03T21:14:00.481Z,13.43
2023-07-03T21:16:27.882Z,13.68
2023-07-03T21:18:55.407Z,13.57
2023-07-03T21:21:25.932Z,15.85
2023-07-03T21:23:53.600Z,15.03
2023-07-03T21:26:22.390Z,16.13
2023-07-03T21:28:51.647Z,13.77
2023-07-03T21:31:20.186Z,15.38
2023-07-03T21:33:47.525Z,15.63
2023-07-03T21:36:17.620Z,13.87
2023-07-03T21:38:47.113Z,15.05
2023-07-03T21:41:16.578Z,14.00
2023-07-03T21:43:48.852Z,14.88
2023-07-03T21:46:16.979Z,12.60
2023-07-03T21:48:44.739Z,16.00
2023-07-03T21:51:14.152Z,14.50
2023-07-03T21:53:41.433Z,13.77
2023-07-03T21:56:12.125Z,14.82
2023-07-03T21:58:40.975Z,13.60
2023-07-03T22:01:16.682Z,14.60
2023-07-03T22:03:44.065Z,13.27
2023-07-03T22:06:11.631Z,12.93
2023-07-03T22:08:38.922Z,13.57
2023-07-03T22:11:06.272Z,13.55
2023-07-03T22:13:35.384Z,13.00
2023-07-03T22:16:03.061Z,13.30
2023-07-03T22:18:30.455Z,13.10
2023-07-03T22:20:58.161Z,13.27
2023-07-03T22:23:32.018Z,13.95
2023-07-03T22:26:01.567Z,12.23
2023-07-03T22:28:30.184Z,13.20
2023-07-03T22:30:59.473Z,12.65
2023-07-03T22:33:26.835Z,12.77
2023-07-03T22:35:54.612Z,13.98
2023-07-03T22:38:22.095Z,12.07
2023-07-03T22:40:50.718Z,12.93
2023-07-03T22:43:17.993Z,12.60
2023-07-03T22:45:45.708Z,11.63
2023-07-03T22:48:14.825Z,10.88
2023-07-03T22:50:42.837Z,13.13
2023-07-03T22:53:11.078Z,13.65
2023-07-03T22:55:40.322Z,12.55
2023-07-03T22:58:08.639Z,13.93
2023-07-03T23:00:38.403Z,13.70
2023-07-03T23:03:05.790Z,14.50
2023-07-03T23:05:35.695Z,11.65
2023-07-03T23:08:03.321Z,14.82
2023-07-03T23:10:30.878Z,12.65
2023-07-03T23:12:58.137Z,12.65
2023-07-03T23:15:26.930Z,12.97
2023-07-03T23:17:54.211Z,14.30
2023-07-03T23:20:22.536Z,15.10
2023-07-03T23:22:51.268Z,15.05
2023-07-03T23:25:18.599Z,14.50
2023-07-03T23:27:46.442Z,14.20
2023-07-03T23:30:13.955Z,15.05
2023-07-03T23:32:41.225Z,14.90
2023-07-03T23:35:12.151Z,13.98
2023-07-03T23:37:42.417Z,13.40
2023-07-03T23:40:12.263Z,14.43
2023-07-03T23:42:40.112Z,14.07
2023-07-03T23:45:09.139Z,13.88
2023-07-03T23:47:37.021Z,14.02
2023-07-03T23:50:04.829Z,13.70
2023-07-03T23:52:32.142Z,14.33
2023-07-03T23:54:59.593Z,14.45
2023-07-03T23:57:29.214Z,15.52
2023-07-03T23:59:57.074Z,15.50
